Time;durP1;ratioP1;P1;durP2;ratioP2;P2;SDS_P1;SDS_P2;PMS_P1;PMS_P2;Temp;Humidity;BMP_temperature;BMP_pressure;BME280_temperature;BME280_humidity;BME280_pressure;Samples;Min_cycle;Max_cycle;Signal;HPM_P1;HPM_P2
2021/04/14 00:01:00;;;;;;;5.78;1.40;;;0.50;99.90;;;;;;1930105;74;21129;-76
2021/04/14 00:03:28;;;;;;;2.27;1.72;;;0.40;99.90;;;;;;1929768;74;21076;-75
2021/04/14 00:05:54;;;;;;;2.80;1.42;;;0.40;99.90;;;;;;1929985;74;21093;-76
2021/04/14 00:08:20;;;;;;;2.10;1.45;;;0.30;99.90;;;;;;1930060;74;21141;-76
2021/04/14 00:10:46;;;;;;;1.60;1.50;;;0.30;99.90;;;;;;1930016;74;21133;-75
2021/04/14 00:13:12;;;;;;;4.55;2.20;;;0.30;99.90;;;;;;1930101;74;21060;-75
2021/04/14 00:15:38;;;;;;;2.10;1.60;;;0.30;99.90;;;;;;1930113;74;21129;-75
2021/04/14 00:18:04;;;;;;;5.92;1.57;;;0.40;99.90;;;;;;1929813;74;21067;-76
2021/04/14 00:20:31;;;;;;;2.22;1.80;;;0.40;99.90;;;;;;1930023;73;21081;-76
2021/04/14 00:22:57;;;;;;;1.40;1.02;;;0.40;99.90;;;;;;1930062;74;21085;-74
2021/04/14 00:25:23;;;;;;;1.50;1.40;;;0.20;99.90;;;;;;1930023;74;21539;-74
2021/04/14 00:27:49;;;;;;;2.70;1.80;;;0.20;99.90;;;;;;1929893;74;21088;-75
2021/04/14 00:30:15;;;;;;;2.33;1.82;;;0.20;99.90;;;;;;1929960;74;21361;-74
2021/04/14 00:32:41;;;;;;;2.12;1.65;;;0.10;99.90;;;;;;1929927;74;21060;-75
2021/04/14 00:35:07;;;;;;;1.60;1.47;;;0.10;99.90;;;;;;1930038;74;21162;-75
2021/04/14 00:37:33;;;;;;;2.10;1.70;;;0.10;99.90;;;;;;1930041;74;21089;-76
2021/04/14 00:40:00;;;;;;;2.42;1.77;;;0.20;99.90;;;;;;1929930;74;21126;-76
2021/04/14 00:42:26;;;;;;;4.87;2.37;;;0.10;99.90;;;;;;1929996;74;21222;-76
2021/04/14 00:44:52;;;;;;;2.55;1.87;;;0.10;99.90;;;;;;1929800;74;21037;-76
2021/04/14 00:47:18;;;;;;;1.65;1.50;;;0.10;99.90;;;;;;1930032;73;21524;-76
2021/04/14 00:49:44;;;;;;;2.67;1.80;;;0.10;99.90;;;;;;1929975;73;21467;-76
2021/04/14 00:52:10;;;;;;;1.85;1.55;;;0.10;99.90;;;;;;1929879;74;21573;-76
2021/04/14 00:54:36;;;;;;;1.40;1.30;;;0.00;99.90;;;;;;1929912;73;21063;-76
2021/04/14 00:57:02;;;;;;;4.22;1.72;;;-0.10;99.90;;;;;;1930003;74;21166;-75
2021/04/14 00:59:30;;;;;;;3.52;1.45;;;-0.20;99.90;;;;;;1929998;74;21088;-76
2021/04/14 01:01:57;;;;;;;1.98;1.52;;;-0.20;99.90;;;;;;1929983;74;21144;-75
2021/04/14 01:04:23;;;;;;;2.92;1.95;;;-0.10;99.90;;;;;;1929887;74;21084;-76
2021/04/14 01:06:50;;;;;;;2.40;1.40;;;-0.10;99.90;;;;;;1927487;74;21096;-75
2021/04/14 01:09:16;;;;;;;6.08;1.70;;;-0.20;99.90;;;;;;1927387;74;21127;-76
2021/04/14 01:11:42;;;;;;;5.62;2.08;;;-0.30;99.90;;;;;;1930027;74;21100;-75
2021/04/14 01:14:08;;;;;;;5.28;1.82;;;-0.30;99.90;;;;;;1930079;74;21100;-75
2021/04/14 01:16:34;;;;;;;1.72;1.30;;;-0.30;99.90;;;;;;1930027;73;21097;-76
2021/04/14 01:19:00;;;;;;;2.60;1.57;;;-0.40;99.90;;;;;;1930091;74;21521;-75
2021/04/14 01:21:26;;;;;;;3.35;2.22;;;-0.40;99.90;;;;;;1924684;74;21534;-75
2021/04/14 01:23:52;;;;;;;1.60;1.50;;;-0.40;99.90;;;;;;1928306;73;21482;-75
2021/04/14 01:26:19;;;;;;;3.50;1.72;;;-0.40;99.90;;;;;;1924523;74;21558;-77
2021/04/14 01:28:47;;;;;;;2.58;1.77;;;-0.40;99.90;;;;;;1929859;73;21071;-75
2021/04/14 01:31:13;;;;;;;3.62;2.00;;;-0.30;99.90;;;;;;1930099;74;21096;-76
2021/04/14 01:33:39;;;;;;;2.20;1.40;;;-0.30;99.90;;;;;;1929932;74;21170;-77
2021/04/14 01:36:05;;;;;;;6.17;1.62;;;-0.20;99.90;;;;;;1930109;74;21531;-76
2021/04/14 01:38:31;;;;;;;9.25;1.72;;;-0.30;99.90;;;;;;1930056;74;21468;-77
2021/04/14 01:40:57;;;;;;;2.10;1.60;;;-0.30;99.90;;;;;;1930039;74;21523;-76
2021/04/14 01:43:23;;;;;;;6.70;1.87;;;-0.40;99.90;;;;;;1930035;74;21532;-76
2021/04/14 01:45:49;;;;;;;2.05;1.65;;;-0.40;99.90;;;;;;1930050;74;21077;-76
2021/04/14 01:48:15;;;;;;;5.28;2.22;;;-0.40;99.90;;;;;;1930029;74;21077;-77
2021/04/14 01:50:41;;;;;;;2.60;1.85;;;-0.30;99.90;;;;;;1929988;74;21017;-75
2021/04/14 01:53:08;;;;;;;7.65;1.60;;;-0.40;99.90;;;;;;1930021;74;21053;-76
2021/04/14 01:55:34;;;;;;;1.55;1.40;;;-0.30;99.90;;;;;;1930018;74;21158;-76
2021/04/14 01:58:00;;;;;;;3.92;1.85;;;-0.30;99.90;;;;;;1929998;74;21100;-74
2021/04/14 02:00:27;;;;;;;1.90;1.62;;;-0.50;99.90;;;;;;1929988;74;21197;-74
2021/04/14 02:02:53;;;;;;;2.12;1.65;;;-0.50;99.90;;;;;;1929987;74;21502;-74
2021/04/14 02:05:19;;;;;;;3.98;2.00;;;-0.50;99.90;;;;;;1929973;74;21468;-75
2021/04/14 02:07:45;;;;;;;2.80;2.00;;;-0.50;99.90;;;;;;1930196;74;21553;-75
2021/04/14 02:10:11;;;;;;;2.83;2.08;;;-0.60;99.90;;;;;;1929969;74;21566;-76
2021/04/14 02:12:37;;;;;;;3.95;1.98;;;-0.50;99.90;;;;;;1894430;74;21118;-75
2021/04/14 02:15:03;;;;;;;2.67;1.90;;;-0.50;99.90;;;;;;1929955;74;21073;-75
2021/04/14 02:17:29;;;;;;;2.17;1.72;;;-0.60;99.90;;;;;;1929915;74;21058;-75
2021/04/14 02:19:55;;;;;;;2.30;1.80;;;-0.70;99.90;;;;;;1930006;73;21048;-75
2021/04/14 02:22:22;;;;;;;1.72;1.60;;;-0.50;99.90;;;;;;1930001;74;21123;-76
2021/04/14 02:24:48;;;;;;;4.10;1.85;;;-0.50;99.90;;;;;;1930003;74;21166;-76
2021/04/14 02:27:14;;;;;;;2.55;1.77;;;-0.50;99.90;;;;;;1929984;74;21090;-76
2021/04/14 02:29:40;;;;;;;1.57;1.37;;;-0.50;99.90;;;;;;1930122;73;21130;-76
2021/04/14 02:32:06;;;;;;;4.87;2.02;;;-0.70;99.90;;;;;;1930110;74;21103;-75
2021/04/14 02:34:32;;;;;;;2.10;1.77;;;-0.80;99.90;;;;;;1930110;74;21085;-76
2021/04/14 02:36:58;;;;;;;3.98;1.87;;;-0.80;99.90;;;;;;1929989;74;21088;-75
2021/04/14 02:39:24;;;;;;;1.77;1.62;;;-0.80;99.90;;;;;;1930085;74;21061;-76
2021/04/14 02:41:51;;;;;;;3.65;2.22;;;-0.80;99.90;;;;;;1929887;74;21056;-76
2021/04/14 02:44:17;;;;;;;9.13;1.95;;;-0.80;99.90;;;;;;1930100;73;21209;-76
2021/04/14 02:46:43;;;;;;;2.65;2.17;;;-0.90;99.90;;;;;;1929899;74;21182;-75
2021/04/14 02:49:09;;;;;;;9.08;2.12;;;-0.90;99.90;;;;;;1930068;74;21565;-76
2021/04/14 02:51:35;;;;;;;4.95;2.72;;;-0.80;99.90;;;;;;1930115;74;21581;-76
2021/04/14 02:54:01;;;;;;;3.37;2.15;;;-0.80;99.90;;;;;;1929938;74;21525;-75
2021/04/14 02:56:27;;;;;;;2.70;2.17;;;-0.80;99.90;;;;;;1930103;73;21609;-76
2021/04/14 02:58:53;;;;;;;2.95;2.10;;;-0.70;99.90;;;;;;1894169;74;21045;-75
2021/04/14 03:01:20;;;;;;;7.60;1.87;;;-0.60;99.90;;;;;;1930031;74;21077;-75
2021/04/14 03:03:46;;;;;;;2.92;2.42;;;-0.60;99.90;;;;;;1930022;73;21120;-76
2021/04/14 03:06:12;;;;;;;3.58;2.50;;;-0.60;99.90;;;;;;1929910;74;21492;-75
2021/04/14 03:08:38;;;;;;;3.08;2.10;;;-0.80;99.90;;;;;;1930015;74;21104;-75
2021/04/14 03:11:04;;;;;;;2.58;2.15;;;-0.80;99.90;;;;;;1930100;74;21068;-75
2021/04/14 03:13:31;;;;;;;2.33;1.65;;;-0.80;99.90;;;;;;1929901;74;21158;-76
2021/04/14 03:15:57;;;;;;;3.33;2.45;;;-0.70;99.90;;;;;;1930005;73;21143;-76
2021/04/14 03:18:23;;;;;;;3.20;2.27;;;-0.60;99.90;;;;;;1929977;74;21077;-76
2021/04/14 03:20:49;;;;;;;2.92;2.08;;;-0.70;99.90;;;;;;1929930;74;21092;-75
2021/04/14 03:23:15;;;;;;;5.05;2.22;;;-0.80;99.90;;;;;;1929944;74;21077;-75
2021/04/14 03:25:41;;;;;;;2.27;1.72;;;-1.00;99.90;;;;;;1930189;74;21162;-75
2021/04/14 03:28:07;;;;;;;2.75;2.12;;;-1.00;99.90;;;;;;1930793;74;21032;-75
2021/04/14 03:30:33;;;;;;;2.10;1.62;;;-1.00;99.90;;;;;;1930081;74;21058;-75
2021/04/14 03:33:00;;;;;;;4.05;2.22;;;-1.00;99.90;;;;;;1929865;74;21187;-75
2021/04/14 03:35:26;;;;;;;2.22;2.02;;;-1.00;99.90;;;;;;1930094;74;21564;-76
2021/04/14 03:37:52;;;;;;;4.08;2.42;;;-1.00;99.90;;;;;;1930069;74;21500;-76
2021/04/14 03:40:18;;;;;;;4.58;2.27;;;-1.00;99.90;;;;;;1932197;74;21150;-76
2021/04/14 03:42:44;;;;;;;8.18;3.00;;;-0.90;99.90;;;;;;1929876;74;21044;-76
2021/04/14 03:45:13;;;;;;;5.22;2.50;;;-1.00;99.90;;;;;;1929981;74;21005;-75
2021/04/14 03:47:38;;;;;;;4.58;2.60;;;-1.00;99.90;;;;;;1932047;74;21092;-76
2021/04/14 03:50:04;;;;;;;2.50;1.98;;;-1.00;99.90;;;;;;1930204;74;21056;-76
2021/04/14 03:52:30;;;;;;;2.33;1.98;;;-1.00;99.90;;;;;;1925535;73;21072;-76
2021/04/14 03:54:56;;;;;;;3.30;2.20;;;-1.10;99.90;;;;;;1928998;73;21126;-75
2021/04/14 03:57:23;;;;;;;1.75;1.60;;;-1.20;99.90;;;;;;1925332;74;21040;-76
2021/04/14 03:59:49;;;;;;;5.37;2.50;;;-1.20;99.90;;;;;;1932432;74;21067;-76
2021/04/14 04:02:15;;;;;;;2.87;2.27;;;-1.10;99.90;;;;;;1931071;74;21170;-75
2021/04/14 04:04:41;;;;;;;2.12;1.70;;;-1.10;99.90;;;;;;1932638;74;21080;-76
2021/04/14 04:07:07;;;;;;;3.90;2.65;;;-1.20;99.90;;;;;;1930014;74;21096;-76
2021/04/14 04:09:33;;;;;;;2.60;2.40;;;-1.20;99.90;;;;;;1930113;74;21452;-75
2021/04/14 04:12:01;;;;;;;3.00;2.62;;;-1.20;99.90;;;;;;1925430;73;21555;-76
2021/04/14 04:14:31;;;;;;;5.15;2.37;;;-1.20;99.90;;;;;;1929958;74;21225;-75
2021/04/14 04:16:55;;;;;;;2.60;2.15;;;-1.20;99.90;;;;;;1929135;74;21085;-74
2021/04/14 04:19:21;;;;;;;3.62;2.17;;;-1.20;99.90;;;;;;1930001;74;21088;-75
2021/04/14 04:21:47;;;;;;;5.78;2.95;;;-1.30;99.90;;;;;;1930087;74;21113;-74
2021/04/14 04:24:13;;;;;;;4.22;2.10;;;-1.40;99.90;;;;;;1930060;74;21084;-75
2021/04/14 04:26:39;;;;;;;4.80;2.62;;;-1.40;99.90;;;;;;1930079;74;21088;-75
2021/04/14 04:29:05;;;;;;;3.00;2.12;;;-1.30;99.90;;;;;;1930021;74;21085;-76
2021/04/14 04:31:31;;;;;;;4.22;2.40;;;-1.30;99.90;;;;;;1930079;74;21081;-76
2021/04/14 04:33:57;;;;;;;3.33;2.50;;;-1.40;99.90;;;;;;1929955;73;21085;-75
2021/04/14 04:36:24;;;;;;;7.05;2.27;;;-1.30;99.90;;;;;;1929931;74;21156;-75
2021/04/14 04:38:50;;;;;;;3.52;2.40;;;-1.20;99.90;;;;;;1929961;74;21166;-76
2021/04/14 04:41:16;;;;;;;8.43;2.55;;;-1.20;99.90;;;;;;1930201;74;21056;-75
2021/04/14 04:43:43;;;;;;;4.20;2.15;;;-1.20;99.90;;;;;;1930072;74;21484;-75
2021/04/14 04:46:09;;;;;;;3.30;2.08;;;-1.20;99.90;;;;;;1930170;73;21060;-75
2021/04/14 04:48:35;;;;;;;4.70;2.15;;;-1.20;99.90;;;;;;1930268;73;21145;-76
2021/04/14 04:51:01;;;;;;;3.98;2.02;;;-1.30;99.90;;;;;;1930143;74;21056;-75
2021/04/14 04:53:27;;;;;;;2.90;2.37;;;-1.30;99.90;;;;;;1930173;74;21072;-76
2021/04/14 04:55:54;;;;;;;5.47;2.37;;;-1.30;99.90;;;;;;1930046;74;21088;-75
2021/04/14 04:58:20;;;;;;;4.70;2.22;;;-1.20;99.90;;;;;;1930115;74;21063;-75
2021/04/14 05:00:47;;;;;;;4.83;2.25;;;-1.20;99.90;;;;;;1929886;74;21346;-75
2021/04/14 05:03:13;;;;;;;8.73;2.12;;;-1.20;99.90;;;;;;1930130;73;21133;-74
2021/04/14 05:05:39;;;;;;;4.47;2.50;;;-1.20;99.90;;;;;;1929939;73;21104;-76
2021/04/14 05:08:05;;;;;;;2.67;1.98;;;-1.20;99.90;;;;;;1930158;74;21060;-74
2021/04/14 05:10:32;;;;;;;2.40;2.20;;;-1.10;99.90;;;;;;1929949;74;21069;-76
2021/04/14 05:12:58;;;;;;;4.95;2.72;;;-1.10;99.90;;;;;;1930144;74;21075;-74
2021/04/14 05:15:24;;;;;;;2.33;1.92;;;-1.00;99.90;;;;;;1929935;74;21081;-75
2021/04/14 05:17:51;;;;;;;2.87;2.12;;;-1.00;99.90;;;;;;1930267;74;21064;-75
2021/04/14 05:20:17;;;;;;;3.45;2.72;;;-1.00;99.90;;;;;;1929922;74;21143;-76
2021/04/14 05:22:45;;;;;;;5.83;2.22;;;-0.90;99.90;;;;;;1930039;74;21484;-75
2021/04/14 05:25:11;;;;;;;4.55;2.58;;;-1.00;99.90;;;;;;1930091;74;21150;-75
2021/04/14 05:27:38;;;;;;;3.75;2.42;;;-0.90;99.90;;;;;;1930120;74;21103;-75
2021/04/14 05:30:04;;;;;;;2.52;2.08;;;-0.80;99.90;;;;;;1930016;74;21068;-76
2021/04/14 05:32:30;;;;;;;2.45;2.25;;;-0.70;99.90;;;;;;1930045;74;21085;-75
2021/04/14 05:34:56;;;;;;;3.33;2.33;;;-0.70;99.90;;;;;;1929999;74;21217;-74
2021/04/14 05:37:22;;;;;;;4.58;2.60;;;-0.50;99.90;;;;;;1929987;74;21092;-75
2021/04/14 05:39:49;;;;;;;3.17;2.42;;;-0.50;99.90;;;;;;1930112;74;21056;-74
2021/04/14 05:42:17;;;;;;;4.75;2.77;;;-0.40;99.90;;;;;;1931777;74;21072;-75
2021/04/14 05:44:42;;;;;;;2.50;2.17;;;-0.40;99.90;;;;;;1930331;74;21092;-73
2021/04/14 05:47:09;;;;;;;4.75;2.87;;;-0.30;99.90;;;;;;1929909;74;21029;-75
2021/04/14 05:49:35;;;;;;;3.90;2.80;;;-0.20;99.90;;;;;;1929889;74;21036;-74
2021/04/14 05:52:01;;;;;;;4.47;3.08;;;-0.30;99.90;;;;;;1930071;74;21141;-75
2021/04/14 05:54:27;;;;;;;3.17;2.40;;;-0.20;99.90;;;;;;1930000;74;21165;-74
2021/04/14 05:56:53;;;;;;;7.40;3.08;;;-0.20;99.90;;;;;;1935838;74;21064;-73
2021/04/14 05:59:19;;;;;;;5.75;2.20;;;-0.10;99.90;;;;;;1936492;74;21084;-73
2021/04/14 06:01:46;;;;;;;3.50;2.35;;;0.00;99.90;;;;;;1895164;74;21063;-75
2021/04/14 06:04:12;;;;;;;4.17;2.87;;;0.00;99.90;;;;;;1931155;73;21525;-74
2021/04/14 06:06:38;;;;;;;4.45;2.67;;;0.00;99.90;;;;;;1930079;74;21511;-73
2021/04/14 06:09:04;;;;;;;6.60;2.85;;;0.10;99.90;;;;;;1933529;73;21072;-74
2021/04/14 06:11:30;;;;;;;6.33;2.72;;;0.30;99.90;;;;;;1929964;74;21068;-74
2021/04/14 06:13:56;;;;;;;2.67;2.33;;;0.30;99.90;;;;;;1929959;73;21131;-73
2021/04/14 06:16:22;;;;;;;3.15;2.85;;;0.40;99.90;;;;;;1929952;74;21096;-74
2021/04/14 06:18:48;;;;;;;6.05;3.10;;;0.40;99.90;;;;;;1929943;74;21092;-75
2021/04/14 06:21:16;;;;;;;6.35;3.17;;;0.50;99.90;;;;;;1930032;73;21083;-75
2021/04/14 06:23:42;;;;;;;5.83;3.40;;;0.70;99.90;;;;;;1930000;74;21089;-75
2021/04/14 06:28:36;;;;;;;4.30;3.27;;;0.60;99.90;;;;;;1929900;74;21136;-75
2021/04/14 06:31:02;;;;;;;6.75;3.72;;;0.80;99.90;;;;;;1929935;74;21137;-75
2021/04/14 06:33:31;;;;;;;8.75;3.42;;;0.80;99.90;;;;;;1930042;74;21093;-74
2021/04/14 06:35:56;;;;;;;4.72;3.50;;;0.80;99.90;;;;;;1929575;74;21213;-74
2021/04/14 06:38:25;;;;;;;9.13;4.20;;;0.80;99.90;;;;;;1929953;73;21073;-73
2021/04/14 06:41:55;;;;;;;4.35;3.35;;;1.00;99.90;;;;;;1929582;74;21469;-75
2021/04/14 06:43:37;;;;;;;8.43;4.28;;;1.20;99.90;;;;;;1908936;73;21143;-74
2021/04/14 06:45:58;;;;;;;6.72;3.92;;;1.30;99.90;;;;;;1927894;74;21162;-73
2021/04/14 06:48:24;;;;;;;9.65;4.15;;;1.30;99.90;;;;;;1930083;73;21089;-74
2021/04/14 06:50:50;;;;;;;4.60;3.55;;;1.40;99.90;;;;;;1929956;74;21140;-73
2021/04/14 06:53:16;;;;;;;6.30;3.90;;;1.70;99.90;;;;;;1929908;74;21104;-72
2021/04/14 06:55:42;;;;;;;4.60;3.27;;;1.80;99.90;;;;;;1929873;74;21051;-74
2021/04/14 06:58:08;;;;;;;3.58;3.05;;;2.00;99.90;;;;;;1929971;74;21076;-75
2021/04/14 07:00:36;;;;;;;6.83;3.75;;;2.10;99.90;;;;;;1929806;73;21056;-71
2021/04/14 07:03:02;;;;;;;5.03;3.58;;;2.30;99.90;;;;;;1929925;74;21089;-73
2021/04/14 07:05:28;;;;;;;4.03;3.30;;;2.30;99.90;;;;;;1930133;74;21064;-74
2021/04/14 07:07:54;;;;;;;5.62;3.75;;;2.50;99.90;;;;;;1929929;74;21166;-73
2021/04/14 07:10:21;;;;;;;4.20;3.42;;;2.90;99.90;;;;;;1929884;74;21079;-73
2021/04/14 07:12:47;;;;;;;6.33;3.42;;;3.20;99.90;;;;;;1929903;74;21135;-72
2021/04/14 07:15:13;;;;;;;8.13;3.30;;;3.40;99.90;;;;;;1929896;74;21056;-74
2021/04/14 07:17:40;;;;;;;4.95;3.20;;;3.60;99.90;;;;;;1929934;74;21060;-73
2021/04/14 07:20:06;;;;;;;4.83;3.08;;;3.90;99.90;;;;;;1929941;74;21104;-75
2021/04/14 07:22:32;;;;;;;4.65;3.45;;;4.20;99.90;;;;;;1930318;73;21589;-74
2021/04/14 07:24:58;;;;;;;4.80;2.83;;;3.90;99.90;;;;;;1930075;74;21449;-74
2021/04/14 07:27:24;;;;;;;5.20;3.37;;;4.30;99.90;;;;;;1929866;74;21536;-74
2021/04/14 07:29:50;;;;;;;4.72;3.25;;;4.30;99.90;;;;;;1930009;74;21108;-74
2021/04/14 07:32:16;;;;;;;6.25;3.08;;;4.70;99.90;;;;;;1929804;74;21111;-75
2021/04/14 07:34:43;;;;;;;8.95;4.00;;;5.10;99.90;;;;;;1930149;74;21065;-75
2021/04/14 07:37:09;;;;;;;5.15;2.85;;;5.00;99.90;;;;;;1929912;74;21089;-75
2021/04/14 07:39:35;;;;;;;4.92;3.30;;;5.00;99.90;;;;;;1929938;74;21181;-74
2021/04/14 07:42:02;;;;;;;4.80;3.40;;;5.20;99.90;;;;;;1929911;74;21141;-74
2021/04/14 07:44:28;;;;;;;5.65;3.20;;;5.40;99.90;;;;;;1929938;74;21083;-74
2021/04/14 07:46:55;;;;;;;3.12;2.83;;;5.60;99.90;;;;;;1929917;74;21100;-73
2021/04/14 07:49:21;;;;;;;6.00;3.10;;;5.60;99.90;;;;;;1930157;74;21075;-74
2021/04/14 07:51:47;;;;;;;6.53;3.15;;;6.20;99.90;;;;;;1929810;74;21140;-75
2021/04/14 07:54:23;;;;;;;10.98;3.22;;;6.10;99.90;;;;;;1929750;74;21582;-74
2021/04/14 07:56:47;;;;;;;9.70;3.90;;;5.90;99.90;;;;;;1929445;74;21096;-74
2021/04/14 07:59:13;;;;;;;5.08;2.98;;;6.00;99.90;;;;;;1929962;74;21088;-74
2021/04/14 08:01:39;;;;;;;11.93;3.47;;;6.60;99.90;;;;;;1929980;74;21089;-74
2021/04/14 08:04:06;;;;;;;11.20;4.67;;;6.60;99.90;;;;;;1930079;74;21092;-74
2021/04/14 08:06:32;;;;;;;4.53;3.30;;;6.60;99.90;;;;;;1929870;74;21041;-74
2021/04/14 08:08:58;;;;;;;5.50;3.02;;;7.00;99.90;;;;;;1929988;74;21093;-75
2021/04/14 08:11:28;;;;;;;4.20;2.98;;;6.90;99.90;;;;;;1929808;73;21137;-75
2021/04/14 08:13:52;;;;;;;3.72;2.60;;;7.10;99.90;;;;;;1929262;74;21162;-74
2021/04/14 08:16:18;;;;;;;5.10;3.05;;;7.10;99.90;;;;;;1930017;74;21081;-74
2021/04/14 08:18:44;;;;;;;7.67;3.15;;;6.80;99.90;;;;;;1929853;74;21075;-74
2021/04/14 08:21:11;;;;;;;7.17;3.22;;;7.10;99.90;;;;;;1930048;74;21084;-74
2021/04/14 08:23:37;;;;;;;3.77;2.62;;;7.30;99.90;;;;;;1929828;74;21110;-75
2021/04/14 08:26:03;;;;;;;5.28;2.42;;;6.80;99.90;;;;;;1929999;73;21071;-73
2021/04/14 08:28:29;;;;;;;5.20;2.35;;;7.20;99.90;;;;;;1929831;74;21573;-74
2021/04/14 08:30:55;;;;;;;2.70;2.05;;;7.40;99.90;;;;;;1930040;74;21119;-74
2021/04/14 08:33:22;;;;;;;4.70;2.02;;;8.00;99.90;;;;;;1929810;74;21203;-74
2021/04/14 08:35:48;;;;;;;4.87;2.37;;;8.10;99.90;;;;;;1926349;73;21095;-74
2021/04/14 08:38:14;;;;;;;7.42;2.12;;;8.60;99.90;;;;;;1981642;72;21063;-75
2021/04/14 08:40:40;;;;;;;5.37;2.47;;;8.70;99.90;;;;;;1981860;72;21035;-74
2021/04/14 08:43:06;;;;;;;3.52;1.77;;;8.30;99.90;;;;;;1981788;72;21051;-73
2021/04/14 08:45:34;;;;;;;3.65;1.45;;;8.40;99.90;;;;;;1981662;72;21470;-74
2021/04/14 08:48:00;;;;;;;8.20;1.47;;;8.10;99.90;;;;;;1981568;72;21059;-75
2021/04/14 08:50:27;;;;;;;4.15;1.72;;;8.60;99.90;;;;;;1994660;71;21073;-75
2021/04/14 08:52:55;;;;;;;2.72;1.70;;;8.10;99.90;;;;;;1981543;72;21057;-75
2021/04/14 08:55:23;;;;;;;1.85;1.20;;;8.00;99.90;;;;;;1981454;72;21062;-75
2021/04/14 08:57:49;;;;;;;6.17;1.55;;;8.10;99.90;;;;;;1981688;72;21475;-74
2021/04/14 09:00:15;;;;;;;2.20;1.30;;;8.70;99.90;;;;;;1981447;72;21568;-75
2021/04/14 09:02:41;;;;;;;6.25;1.50;;;9.30;99.90;;;;;;1981473;72;21435;-74
2021/04/14 09:05:08;;;;;;;4.80;1.60;;;8.90;99.90;;;;;;1981950;72;21632;-74
2021/04/14 09:07:34;;;;;;;9.83;1.70;;;9.00;99.90;;;;;;1981567;72;21051;-74
2021/04/14 09:10:00;;;;;;;1.98;1.37;;;8.80;99.90;;;;;;1981623;72;21024;-74
2021/04/14 09:12:26;;;;;;;2.83;1.37;;;8.20;99.90;;;;;;1981554;72;21032;-74
2021/04/14 09:14:53;;;;;;;3.55;1.70;;;7.80;99.90;;;;;;1981645;72;21048;-75
2021/04/14 09:17:19;;;;;;;3.27;1.40;;;7.60;99.90;;;;;;1981342;72;21108;-74
2021/04/14 09:19:45;;;;;;;3.90;1.50;;;7.50;99.90;;;;;;1981647;72;21116;-74
2021/04/14 09:22:11;;;;;;;3.62;1.40;;;7.80;99.90;;;;;;1981460;72;21047;-74
2021/04/14 09:24:37;;;;;;;1.85;1.32;;;8.20;99.90;;;;;;1981780;72;21086;-74
2021/04/14 09:27:05;;;;;;;4.05;1.55;;;8.40;99.90;;;;;;1981772;72;21081;-74
2021/04/14 09:29:31;;;;;;;3.87;1.47;;;8.20;99.90;;;;;;1981651;72;21488;-74
2021/04/14 09:31:58;;;;;;;2.12;1.30;;;8.40;99.90;;;;;;1981817;72;21139;-75
2021/04/14 09:34:25;;;;;;;2.83;1.32;;;7.90;99.90;;;;;;1981617;72;21059;-75
2021/04/14 09:36:51;;;;;;;5.58;1.27;;;7.90;99.90;;;;;;1981679;72;21132;-74
2021/04/14 09:39:19;;;;;;;4.87;1.25;;;7.70;99.90;;;;;;1981527;72;21086;-76
2021/04/14 09:41:45;;;;;;;1.35;1.12;;;8.00;99.90;;;;;;1981710;72;21153;-75
2021/04/14 09:44:11;;;;;;;2.85;1.70;;;8.10;99.90;;;;;;1981703;72;21502;-76
2021/04/14 09:46:37;;;;;;;3.17;1.12;;;8.20;99.90;;;;;;1981673;72;21055;-75
2021/04/14 09:49:03;;;;;;;2.92;1.35;;;8.00;99.90;;;;;;1981695;72;21048;-75
2021/04/14 09:51:29;;;;;;;5.22;1.10;;;7.70;99.90;;;;;;1981734;72;21032;-75
2021/04/14 09:53:59;;;;;;;1.75;1.12;;;7.90;99.90;;;;;;1981787;72;21052;-75
2021/04/14 09:56:27;;;;;;;1.45;0.90;;;7.80;99.90;;;;;;1981899;72;21454;-73
2021/04/14 09:58:53;;;;;;;1.87;1.10;;;8.10;99.90;;;;;;1981650;72;21059;-75
2021/04/14 10:01:19;;;;;;;4.90;1.30;;;8.30;99.90;;;;;;1981794;72;21063;-75
2021/04/14 10:03:47;;;;;;;1.77;1.07;;;8.30;99.90;;;;;;1981709;72;21038;-74
2021/04/14 10:06:13;;;;;;;2.72;1.20;;;8.50;99.90;;;;;;1981717;72;21076;-75
2021/04/14 10:08:40;;;;;;;1.95;1.30;;;8.60;99.90;;;;;;1981860;72;21454;-74
2021/04/14 10:11:06;;;;;;;3.22;1.12;;;8.50;99.90;;;;;;1982046;72;21028;-75
2021/04/14 10:13:32;;;;;;;2.27;1.10;;;8.40;99.90;;;;;;1982710;72;21141;-75
2021/04/14 10:15:58;;;;;;;1.98;1.15;;;8.30;99.90;;;;;;1982346;72;21164;-76
2021/04/14 10:18:25;;;;;;;4.28;1.10;;;8.30;99.90;;;;;;1982340;72;21122;-76
2021/04/14 10:20:52;;;;;;;2.70;1.27;;;8.30;99.90;;;;;;1981867;72;21047;-78
2021/04/14 10:23:18;;;;;;;2.85;1.30;;;8.40;99.90;;;;;;1981844;72;21168;-76
2021/04/14 10:25:44;;;;;;;1.92;1.17;;;8.30;99.90;;;;;;1981724;72;21138;-75
2021/04/14 10:28:11;;;;;;;5.12;1.00;;;8.20;99.90;;;;;;1981694;72;21054;-74
2021/04/14 10:30:37;;;;;;;5.47;1.15;;;7.70;99.90;;;;;;1981690;72;21054;-73
2021/04/14 10:33:03;;;;;;;2.05;0.80;;;7.30;99.90;;;;;;1981705;72;21043;-73
2021/04/14 10:35:29;;;;;;;3.80;1.00;;;7.00;99.90;;;;;;1981912;72;21115;-73
2021/04/14 10:37:56;;;;;;;4.50;1.10;;;6.60;99.90;;;;;;1981743;72;21125;-73
2021/04/14 10:40:22;;;;;;;1.90;1.15;;;6.50;99.90;;;;;;1981533;72;21050;-73
2021/04/14 10:42:48;;;;;;;1.45;0.98;;;6.50;99.90;;;;;;1981718;72;21047;-73
2021/04/14 10:45:14;;;;;;;2.92;1.50;;;6.40;99.90;;;;;;1981860;72;21020;-73
2021/04/14 10:47:40;;;;;;;2.58;0.98;;;6.50;99.90;;;;;;1981579;72;21121;-73
2021/04/14 10:50:06;;;;;;;2.27;1.57;;;6.60;99.90;;;;;;1981844;72;21051;-73
2021/04/14 10:52:34;;;;;;;1.37;1.22;;;6.30;99.90;;;;;;1983371;72;21055;-73
2021/04/14 10:55:00;;;;;;;10.38;4.75;;;5.90;99.90;;;;;;1982157;72;21028;-73
2021/04/14 10:57:27;;;;;;;2.95;1.40;;;6.00;99.90;;;;;;1982774;72;21428;-73
2021/04/14 10:59:53;;;;;;;1.92;1.10;;;6.10;99.90;;;;;;1981650;72;21486;-74
2021/04/14 11:02:19;;;;;;;2.00;1.07;;;6.20;99.90;;;;;;1981633;72;21047;-74
2021/04/14 11:04:45;;;;;;;1.12;1.00;;;6.50;99.90;;;;;;1981685;72;21117;-74
2021/04/14 11:07:12;;;;;;;3.15;1.00;;;6.80;99.90;;;;;;1981720;72;21056;-77
2021/04/14 11:09:38;;;;;;;3.47;0.90;;;7.20;99.90;;;;;;1985694;71;21048;-76
2021/04/14 11:12:04;;;;;;;2.47;1.17;;;7.20;99.90;;;;;;1981633;72;21027;-75
2021/04/14 11:14:31;;;;;;;4.35;1.37;;;7.40;99.90;;;;;;1990137;71;21080;-73
2021/04/14 11:16:57;;;;;;;2.58;1.07;;;7.50;99.90;;;;;;1981661;72;21486;-73
2021/04/14 11:19:23;;;;;;;1.82;1.10;;;7.50;99.90;;;;;;1981622;72;21528;-74
2021/04/14 11:21:49;;;;;;;1.52;0.68;;;7.80;99.90;;;;;;1981649;72;21518;-74
2021/04/14 11:24:16;;;;;;;1.30;1.02;;;8.00;99.90;;;;;;1981855;72;21047;-74
2021/04/14 11:26:42;;;;;;;5.03;1.27;;;8.30;99.90;;;;;;1988237;71;21079;-75
2021/04/14 11:29:08;;;;;;;1.10;0.80;;;8.70;99.90;;;;;;2001407;71;21075;-75
2021/04/14 11:31:35;;;;;;;1.30;0.90;;;8.70;99.90;;;;;;1981562;72;21072;-75
2021/04/14 11:34:01;;;;;;;2.77;1.15;;;8.70;99.90;;;;;;1981675;72;21475;-75
2021/04/14 11:36:27;;;;;;;2.02;0.78;;;8.90;99.90;;;;;;1981644;72;21481;-74
2021/04/14 11:38:53;;;;;;;3.40;0.90;;;9.30;99.90;;;;;;1981623;72;21486;-74
2021/04/14 11:41:19;;;;;;;1.82;0.95;;;9.40;99.90;;;;;;1981681;72;21032;-75
2021/04/14 11:43:45;;;;;;;6.08;1.32;;;9.30;99.90;;;;;;1981637;72;21049;-74
2021/04/14 11:46:11;;;;;;;5.15;1.20;;;9.30;99.90;;;;;;1981656;72;21059;-75
2021/04/14 11:48:37;;;;;;;3.47;1.20;;;9.40;99.90;;;;;;1981627;72;21125;-75
2021/04/14 11:51:03;;;;;;;7.22;1.67;;;9.90;99.90;;;;;;1981574;72;21059;-74
2021/04/14 11:53:30;;;;;;;6.22;1.52;;;9.90;98.80;;;;;;1981644;72;21055;-74
2021/04/14 11:55:56;;;;;;;0.90;0.80;;;9.30;96.30;;;;;;1981732;72;21032;-75
2021/04/14 11:58:22;;;;;;;2.42;1.10;;;9.10;97.40;;;;;;1981832;72;21047;-74
2021/04/14 12:00:48;;;;;;;2.22;1.02;;;9.30;96.80;;;;;;1981678;72;21117;-75
2021/04/14 12:03:14;;;;;;;4.78;1.10;;;9.70;95.40;;;;;;1981607;72;21023;-74
2021/04/14 12:05:40;;;;;;;1.37;0.80;;;9.40;94.40;;;;;;1981694;72;21066;-74
2021/04/14 12:08:07;;;;;;;2.25;0.90;;;9.50;95.20;;;;;;1981497;72;21059;-75
2021/04/14 12:10:33;;;;;;;0.88;0.85;;;9.90;94.50;;;;;;1981668;72;21055;-73
2021/04/14 12:12:59;;;;;;;2.62;0.98;;;10.10;92.00;;;;;;1981825;72;21102;-76
2021/04/14 12:15:25;;;;;;;0.75;0.75;;;10.40;92.90;;;;;;1981597;72;21004;-75
2021/04/14 12:17:52;;;;;;;3.70;0.70;;;10.30;91.90;;;;;;1981777;72;21480;-75
2021/04/14 12:20:18;;;;;;;2.17;0.90;;;10.40;92.20;;;;;;1981609;72;21101;-75
2021/04/14 12:22:44;;;;;;;0.78;0.72;;;10.70;91.00;;;;;;1981726;72;21152;-75
2021/04/14 12:25:10;;;;;;;4.60;0.90;;;10.10;92.40;;;;;;1981607;72;21060;-74
2021/04/14 12:27:37;;;;;;;1.92;0.95;;;10.00;91.30;;;;;;1981569;72;21067;-75
2021/04/14 12:30:03;;;;;;;2.92;0.88;;;10.00;90.50;;;;;;1981566;72;21055;-76
2021/04/14 12:32:29;;;;;;;0.78;0.57;;;10.20;86.00;;;;;;1981499;72;21114;-75
2021/04/14 12:34:55;;;;;;;0.80;0.80;;;10.40;85.20;;;;;;1981422;72;21221;-75
2021/04/14 12:37:21;;;;;;;2.83;1.32;;;10.10;89.30;;;;;;1981457;72;21028;-76
2021/04/14 12:39:47;;;;;;;1.00;0.90;;;9.90;87.80;;;;;;1981508;72;21059;-74
2021/04/14 12:42:13;;;;;;;1.12;0.90;;;9.80;88.10;;;;;;1981604;72;21423;-75
2021/04/14 12:44:39;;;;;;;0.98;0.80;;;9.60;85.00;;;;;;1981486;72;21505;-76
2021/04/14 12:47:09;;;;;;;1.32;0.90;;;9.50;86.60;;;;;;1981711;72;21443;-75
2021/04/14 12:49:37;;;;;;;5.75;0.80;;;10.20;86.20;;;;;;1980855;72;21153;-74